createdAt,value
2023-04-09T00:00:24.489Z,69.92
2023-04-09T00:03:13.900Z,69.88
2023-04-09T00:05:43.810Z,69.96
2023-04-09T00:08:12.886Z,69.95
2023-04-09T00:10:42.132Z,69.73
2023-04-09T00:13:11.049Z,69.74
2023-04-09T00:15:39.666Z,69.87
2023-04-09T00:18:08.556Z,70.01
2023-04-09T00:20:37.373Z,69.88
2023-04-09T00:23:06.453Z,70.03
2023-04-09T00:25:35.558Z,70.06
2023-04-09T00:28:04.591Z,69.99
2023-04-09T00:30:33.300Z,70.00
2023-04-09T00:33:02.458Z,70.05
2023-04-09T00:35:31.692Z,70.03
2023-04-09T00:38:00.498Z,70.06
2023-04-09T00:40:29.969Z,70.16
2023-04-09T00:42:58.636Z,70.04
2023-04-09T00:45:27.679Z,70.19
2023-04-09T00:47:57.187Z,70.02
2023-04-09T00:50:26.430Z,70.08
2023-04-09T00:52:55.994Z,70.28
2023-04-09T00:55:25.962Z,70.13
2023-04-09T00:57:54.952Z,70.14
2023-04-09T01:00:23.558Z,70.01
2023-04-09T01:02:53.689Z,70.14
2023-04-09T01:05:22.591Z,70.16
2023-04-09T01:08:29.762Z,70.19
2023-04-09T01:11:27.967Z,70.18
2023-04-09T01:14:03.666Z,70.19
2023-04-09T01:16:37.336Z,70.21
2023-04-09T01:19:32.274Z,70.09
2023-04-09T01:22:02.961Z,70.14
2023-04-09T01:24:51.775Z,70.15
2023-04-09T01:27:38.557Z,70.30
2023-04-09T01:30:09.402Z,70.21
2023-04-09T01:32:39.698Z,70.19
2023-04-09T01:35:09.226Z,70.18
2023-04-09T01:37:41.007Z,70.05
2023-04-09T01:40:10.162Z,70.13
2023-04-09T01:42:40.693Z,70.26
2023-04-09T01:45:12.550Z,70.30
2023-04-09T01:47:41.988Z,70.30
2023-04-09T01:50:11.821Z,70.22
2023-04-09T01:52:41.845Z,70.36
2023-04-09T01:55:10.418Z,70.31
2023-04-09T01:57:39.131Z,70.26
2023-04-09T02:00:09.989Z,70.23
2023-04-09T02:02:56.072Z,70.32
2023-04-09T02:05:29.823Z,70.27
2023-04-09T02:08:03.023Z,70.36
2023-04-09T02:10:35.304Z,70.41
2023-04-09T02:13:06.503Z,70.49
2023-04-09T02:15:39.571Z,70.39
2023-04-09T02:18:22.357Z,70.55
2023-04-09T02:20:52.786Z,70.46
2023-04-09T02:23:22.627Z,70.49
2023-04-09T02:25:52.558Z,70.68
2023-04-09T02:28:21.331Z,70.66
2023-04-09T02:30:50.494Z,70.49
2023-04-09T02:33:19.039Z,70.71
2023-04-09T02:35:47.905Z,70.85
2023-04-09T02:38:17.050Z,70.89
2023-04-09T02:40:45.829Z,70.58
2023-04-09T02:43:14.688Z,70.64
2023-04-09T02:45:43.740Z,70.73
2023-04-09T02:48:12.281Z,70.56
2023-04-09T02:50:42.174Z,70.60
2023-04-09T02:53:11.563Z,70.70
2023-04-09T02:55:40.105Z,70.72
2023-04-09T02:58:08.817Z,70.85
2023-04-09T03:00:38.090Z,70.99
2023-04-09T03:03:06.941Z,70.85
2023-04-09T03:05:36.823Z,71.17
2023-04-09T03:08:06.216Z,71.18
2023-04-09T03:10:35.185Z,70.91
2023-04-09T03:13:03.928Z,70.75
2023-04-09T03:15:32.778Z,70.80
2023-04-09T03:18:02.057Z,70.97
2023-04-09T03:20:31.326Z,70.87
2023-04-09T03:23:00.184Z,70.78
2023-04-09T03:25:36.886Z,70.93
2023-04-09T03:28:12.708Z,71.12
2023-04-09T03:30:53.624Z,71.11
2023-04-09T03:33:22.570Z,71.32
2023-04-09T03:36:01.277Z,71.16
2023-04-09T03:38:37.807Z,71.17
2023-04-09T03:41:11.388Z,71.07
2023-04-09T03:43:40.878Z,71.19
2023-04-09T03:46:17.370Z,71.27
2023-04-09T03:48:47.368Z,71.33
2023-04-09T03:51:16.560Z,71.27
2023-04-09T03:53:50.324Z,71.19
2023-04-09T03:56:21.476Z,71.31
2023-04-09T03:58:50.177Z,71.22
2023-04-09T04:01:19.728Z,71.30
2023-04-09T04:03:56.139Z,71.29
2023-04-09T04:06:27.687Z,71.47
2023-04-09T04:09:23.974Z,71.47
2023-04-09T04:12:13.772Z,71.53
2023-04-09T04:14:51.827Z,71.48
2023-04-09T04:17:26.916Z,71.30
2023-04-09T04:19:55.972Z,71.42
2023-04-09T04:22:26.196Z,71.46
2023-04-09T04:24:58.249Z,71.45
2023-04-09T04:27:27.222Z,71.42
2023-04-09T04:29:59.109Z,71.44
2023-04-09T04:32:49.509Z,71.57
2023-04-09T04:35:18.791Z,71.71
2023-04-09T04:37:51.310Z,71.38
2023-04-09T04:40:20.508Z,71.54
2023-04-09T04:42:51.765Z,71.53
2023-04-09T04:45:20.952Z,71.44
2023-04-09T04:47:53.930Z,71.65
2023-04-09T04:50:22.508Z,71.62
2023-04-09T04:52:58.387Z,71.52
2023-04-09T04:55:29.709Z,71.70
2023-04-09T04:57:59.222Z,71.67
2023-04-09T05:00:30.001Z,71.76
2023-04-09T05:03:02.236Z,72.03
2023-04-09T05:05:54.220Z,71.94
2023-04-09T05:08:24.170Z,72.01
2023-04-09T05:10:56.774Z,72.07
2023-04-09T05:13:29.677Z,71.98
2023-04-09T05:15:58.972Z,71.94
2023-04-09T05:18:27.518Z,72.10
2023-04-09T05:20:56.595Z,71.87
2023-04-09T05:23:26.264Z,72.09
2023-04-09T05:25:54.782Z,72.15
2023-04-09T05:28:38.643Z,72.24
2023-04-09T05:31:13.603Z,72.17
2023-04-09T05:33:48.963Z,72.23
2023-04-09T05:36:21.663Z,72.11
2023-04-09T05:38:51.051Z,72.30
2023-04-09T05:41:19.807Z,72.30
2023-04-09T05:44:02.941Z,72.18
2023-04-09T05:46:31.830Z,72.10
2023-04-09T05:49:00.937Z,72.22
2023-04-09T05:51:31.102Z,72.37
2023-04-09T05:53:59.962Z,72.36
2023-04-09T05:56:29.843Z,72.52
2023-04-09T05:58:59.241Z,72.56
2023-04-09T06:01:27.922Z,72.40
2023-04-09T06:03:58.420Z,72.34
2023-04-09T06:06:31.037Z,72.26
2023-04-09T06:09:01.793Z,72.17
2023-04-09T06:11:31.943Z,72.33
2023-04-09T06:14:00.914Z,72.35
2023-04-09T06:16:30.325Z,72.63
2023-04-09T06:18:59.147Z,72.43
2023-04-09T06:21:28.212Z,72.46
2023-04-09T06:23:57.210Z,72.39
2023-04-09T06:26:26.304Z,72.58
2023-04-09T06:28:55.176Z,72.66
2023-04-09T06:31:23.894Z,72.64
2023-04-09T06:33:52.901Z,72.68
2023-04-09T06:36:21.856Z,72.57
2023-04-09T06:38:50.853Z,72.73
2023-04-09T06:41:27.156Z,72.61
2023-04-09T06:43:56.174Z,72.80
2023-04-09T06:46:24.940Z,72.87
2023-04-09T06:48:54.428Z,72.90
2023-04-09T06:51:23.315Z,72.85
2023-04-09T06:53:52.061Z,72.65
2023-04-09T06:56:21.415Z,72.66
2023-04-09T06:58:50.077Z,72.85
2023-04-09T07:01:18.688Z,72.88
2023-04-09T07:03:47.866Z,73.06
2023-04-09T07:06:16.877Z,73.15
2023-04-09T07:08:45.592Z,73.18
2023-04-09T07:11:17.491Z,73.16
2023-04-09T07:13:46.525Z,73.33
2023-04-09T07:16:15.625Z,73.50
2023-04-09T07:18:44.252Z,73.45
2023-04-09T07:21:13.563Z,73.43
2023-04-09T07:23:42.082Z,73.29
2023-04-09T07:26:11.080Z,73.17
2023-04-09T07:28:40.966Z,73.12
2023-04-09T07:31:09.946Z,73.28
2023-04-09T07:33:39.111Z,73.38
2023-04-09T07:36:08.999Z,73.57
2023-04-09T07:38:37.922Z,73.57
2023-04-09T07:41:06.680Z,73.46
2023-04-09T07:43:35.613Z,73.47
2023-04-09T07:46:04.515Z,73.68
2023-04-09T07:48:33.660Z,73.71
2023-04-09T07:51:02.689Z,73.59
2023-04-09T07:53:31.737Z,73.56
2023-04-09T07:56:00.648Z,73.74
2023-04-09T07:58:29.360Z,73.52
2023-04-09T08:00:58.251Z,73.61
2023-04-09T08:03:28.063Z,73.69
2023-04-09T08:05:57.099Z,73.70
2023-04-09T08:08:26.011Z,73.76
2023-04-09T08:10:54.872Z,73.73
2023-04-09T08:13:25.784Z,73.65
2023-04-09T08:15:54.865Z,73.60
2023-04-09T08:18:23.948Z,73.79
2023-04-09T08:20:52.861Z,73.74
2023-04-09T08:23:21.934Z,73.61
2023-04-09T08:25:50.815Z,73.68
2023-04-09T08:28:20.265Z,73.78
2023-04-09T08:30:49.071Z,73.92
2023-04-09T08:33:18.249Z,73.82
2023-04-09T08:35:47.037Z,73.83
2023-04-09T08:38:16.674Z,73.91
2023-04-09T08:40:45.711Z,73.85
2023-04-09T08:43:19.573Z,73.81
2023-04-09T08:45:48.629Z,73.73
2023-04-09T08:48:18.982Z,73.65
2023-04-09T08:50:47.554Z,73.64
2023-04-09T08:53:18.293Z,73.73
2023-04-09T08:55:47.174Z,73.49
2023-04-09T08:58:16.020Z,73.49
2023-04-09T09:00:45.234Z,73.58
2023-04-09T09:03:14.903Z,73.53
2023-04-09T09:05:46.495Z,73.71
2023-04-09T09:08:24.636Z,73.60
2023-04-09T09:10:53.703Z,73.58
2023-04-09T09:13:25.267Z,73.62
2023-04-09T09:16:13.933Z,73.60
2023-04-09T09:18:44.602Z,73.59
2023-04-09T09:21:18.355Z,73.74
2023-04-09T09:23:48.821Z,73.87
2023-04-09T09:26:21.204Z,73.70
2023-04-09T09:28:51.695Z,73.78
2023-04-09T09:31:22.872Z,73.69
2023-04-09T09:33:52.318Z,73.62
2023-04-09T09:36:35.641Z,73.61
2023-04-09T09:39:10.346Z,73.64
2023-04-09T09:41:42.255Z,73.54
2023-04-09T09:44:13.522Z,73.54
2023-04-09T09:46:45.400Z,73.37
2023-04-09T09:49:14.374Z,73.52
2023-04-09T09:51:43.829Z,73.78
2023-04-09T09:54:13.378Z,73.50
2023-04-09T09:56:44.027Z,73.66
2023-04-09T09:59:23.873Z,73.68
2023-04-09T10:02:01.648Z,73.71
2023-04-09T10:04:36.446Z,73.57
2023-04-09T10:07:07.509Z,73.77
2023-04-09T10:09:38.461Z,73.79
2023-04-09T10:12:10.036Z,73.69
2023-04-09T10:14:40.362Z,73.66
2023-04-09T10:17:09.432Z,73.52
2023-04-09T10:19:46.985Z,73.42
2023-04-09T10:22:21.758Z,73.67
2023-04-09T10:24:51.782Z,73.53
2023-04-09T10:27:21.569Z,73.46
2023-04-09T10:29:52.743Z,73.58
2023-04-09T10:32:28.708Z,73.46
2023-04-09T10:34:59.952Z,73.32
2023-04-09T10:37:29.193Z,73.40
2023-04-09T10:39:58.058Z,73.32
2023-04-09T10:42:42.382Z,73.31
2023-04-09T10:45:15.634Z,73.30
2023-04-09T10:47:46.849Z,73.20
2023-04-09T10:50:28.115Z,73.45
2023-04-09T10:52:58.830Z,73.29
2023-04-09T10:55:30.982Z,72.95
2023-04-09T10:58:00.126Z,73.05
2023-04-09T11:00:28.963Z,72.95
2023-04-09T11:03:04.928Z,73.03
2023-04-09T11:05:40.598Z,73.10
2023-04-09T11:08:14.899Z,73.07
2023-04-09T11:10:45.555Z,73.04
2023-04-09T11:13:16.888Z,72.96
2023-04-09T11:15:46.270Z,73.04
2023-04-09T11:18:28.966Z,72.91
2023-04-09T11:21:04.036Z,73.05
2023-04-09T11:23:34.002Z,72.96
2023-04-09T11:26:03.058Z,73.06
2023-04-09T11:28:31.906Z,73.08
2023-04-09T11:31:00.543Z,73.05
2023-04-09T11:33:34.014Z,73.17
2023-04-09T11:36:06.145Z,73.20
2023-04-09T11:38:37.286Z,73.29
2023-04-09T11:41:05.776Z,73.10
2023-04-09T11:43:37.123Z,73.09
2023-04-09T11:46:08.374Z,73.01
2023-04-09T11:48:37.322Z,73.04
2023-04-09T11:51:06.888Z,73.18
2023-04-09T11:53:37.776Z,73.28
2023-04-09T11:56:07.705Z,73.29
2023-04-09T11:58:36.905Z,73.32
2023-04-09T12:01:05.850Z,73.35
2023-04-09T12:03:35.052Z,73.44
2023-04-09T12:06:05.791Z,73.47
2023-04-09T12:08:36.912Z,73.30
2023-04-09T12:11:13.211Z,73.50
2023-04-09T12:13:45.088Z,73.30
2023-04-09T12:16:14.617Z,73.46
2023-04-09T12:18:43.957Z,73.56
2023-04-09T12:21:13.177Z,73.62
2023-04-09T12:23:41.678Z,73.47
2023-04-09T12:26:11.114Z,73.31
2023-04-09T12:28:39.880Z,73.27
2023-04-09T12:31:12.399Z,73.11
2023-04-09T12:33:41.549Z,73.13
2023-04-09T12:36:10.191Z,73.13
2023-04-09T12:38:38.952Z,73.34
2023-04-09T12:41:08.118Z,73.23
2023-04-09T12:43:36.902Z,73.30
2023-04-09T12:46:05.942Z,73.34
2023-04-09T12:48:35.714Z,73.33
2023-04-09T12:51:04.480Z,73.41
2023-04-09T12:53:33.319Z,73.43
2023-04-09T12:56:02.533Z,73.38
2023-04-09T12:58:31.622Z,73.41
2023-04-09T13:01:01.732Z,73.26
2023-04-09T13:03:31.191Z,73.36
2023-04-09T13:05:59.846Z,73.31
2023-04-09T13:08:28.676Z,73.25
2023-04-09T13:10:57.705Z,73.33
2023-04-09T13:13:26.292Z,73.28
2023-04-09T13:15:54.979Z,73.28
2023-04-09T13:18:24.228Z,73.55
2023-04-09T13:20:52.752Z,73.45
2023-04-09T13:23:21.380Z,73.57
2023-04-09T13:25:50.668Z,73.57
2023-04-09T13:28:19.129Z,73.46
2023-04-09T13:30:48.473Z,73.57
2023-04-09T13:33:17.737Z,73.70
2023-04-09T13:35:46.180Z,73.63
2023-04-09T13:38:14.837Z,73.67
2023-04-09T13:40:43.736Z,73.72
2023-04-09T13:43:12.435Z,73.75
2023-04-09T13:45:41.828Z,73.96
2023-04-09T13:48:12.289Z,74.01
2023-04-09T13:50:42.028Z,74.10
2023-04-09T13:53:10.709Z,73.99
2023-04-09T13:55:40.201Z,74.02
2023-04-09T13:58:08.724Z,74.01
2023-04-09T14:00:38.581Z,74.06
2023-04-09T14:03:08.254Z,74.08
2023-04-09T14:05:37.142Z,74.22
2023-04-09T14:08:05.694Z,74.24
2023-04-09T14:10:34.788Z,74.41
2023-04-09T14:13:06.885Z,74.32
2023-04-09T14:15:35.876Z,74.48
2023-04-09T14:18:04.514Z,74.43
2023-04-09T14:20:35.186Z,74.43
2023-04-09T14:23:04.455Z,74.52
2023-04-09T14:25:33.063Z,74.62
2023-04-09T14:28:02.090Z,74.71
2023-04-09T14:30:31.446Z,74.69
2023-04-09T14:33:00.275Z,74.75
2023-04-09T14:35:29.161Z,74.53
2023-04-09T14:37:58.860Z,74.34
2023-04-09T14:40:27.454Z,74.56
2023-04-09T14:42:55.973Z,74.48
2023-04-09T14:45:25.087Z,74.62
2023-04-09T14:47:54.124Z,74.77
2023-04-09T14:50:22.652Z,74.88
2023-04-09T14:52:53.084Z,74.78
2023-04-09T14:55:22.050Z,74.83
2023-04-09T14:57:50.544Z,74.91
2023-04-09T15:00:19.885Z,74.85
2023-04-09T15:02:49.262Z,74.74
2023-04-09T15:05:17.969Z,74.87
2023-04-09T15:07:47.265Z,74.88
2023-04-09T15:10:16.184Z,75.04
2023-04-09T15:12:44.943Z,75.13
2023-04-09T15:15:16.842Z,75.16
2023-04-09T15:17:45.340Z,75.17
2023-04-09T15:20:14.296Z,75.25
2023-04-09T15:22:43.290Z,75.13
2023-04-09T15:25:13.715Z,75.15
2023-04-09T15:27:43.080Z,75.28
2023-04-09T15:30:12.320Z,75.21
2023-04-09T15:32:40.793Z,75.30
2023-04-09T15:35:09.569Z,75.11
2023-04-09T15:37:38.576Z,74.96
2023-04-09T15:40:07.877Z,75.06
2023-04-09T15:42:36.722Z,75.29
2023-04-09T15:45:06.592Z,75.24
2023-04-09T15:47:35.477Z,75.17
2023-04-09T15:50:04.083Z,75.18
2023-04-09T15:52:33.676Z,75.27
2023-04-09T15:55:02.552Z,75.24
2023-04-09T15:57:31.095Z,75.36
2023-04-09T16:00:00.251Z,75.46
2023-04-09T16:02:29.054Z,75.42
2023-04-09T16:04:57.729Z,75.59
2023-04-09T16:07:27.055Z,75.37
2023-04-09T16:09:55.528Z,75.62
2023-04-09T16:12:25.089Z,75.73
2023-04-09T16:14:54.631Z,75.81
2023-04-09T16:17:24.132Z,75.90
2023-04-09T16:19:52.546Z,75.69
2023-04-09T16:22:21.635Z,75.54
2023-04-09T16:24:50.390Z,75.72
2023-04-09T16:27:18.907Z,75.74
2023-04-09T16:29:48.016Z,75.81
2023-04-09T16:32:16.957Z,75.88
2023-04-09T16:34:46.086Z,75.90
2023-04-09T16:37:15.062Z,76.04
2023-04-09T16:39:43.537Z,76.10
2023-04-09T16:42:12.494Z,76.15
2023-04-09T16:44:41.844Z,76.01
2023-04-09T16:47:10.300Z,76.17
2023-04-09T16:49:39.022Z,76.14
2023-04-09T16:52:08.504Z,76.11
2023-04-09T16:54:36.939Z,76.25
2023-04-09T16:57:05.984Z,76.31
2023-04-09T16:59:35.034Z,76.31
2023-04-09T17:02:03.698Z,76.46
2023-04-09T17:04:52.713Z,76.34
2023-04-09T17:07:46.839Z,76.51
2023-04-09T17:10:36.862Z,76.59
2023-04-09T17:13:27.662Z,76.55
2023-04-09T17:16:15.073Z,76.74
2023-04-09T17:19:07.680Z,76.65
2023-04-09T17:21:59.802Z,76.69
2023-04-09T17:24:45.431Z,76.66
2023-04-09T17:27:38.473Z,76.74
2023-04-09T17:30:46.755Z,76.76
2023-04-09T17:33:34.543Z,76.66
2023-04-09T17:36:26.189Z,76.54
2023-04-09T17:39:14.182Z,76.51
2023-04-09T17:42:06.221Z,76.77
2023-04-09T17:44:44.356Z,76.69
2023-04-09T17:47:15.384Z,76.82
2023-04-09T17:49:46.243Z,76.79
2023-04-09T17:52:16.604Z,76.76
2023-04-09T17:54:45.704Z,76.93
2023-04-09T17:57:14.354Z,76.66
2023-04-09T17:59:43.768Z,76.84
2023-04-09T18:02:12.928Z,76.87
2023-04-09T18:04:42.208Z,76.95
2023-04-09T18:07:11.484Z,76.93
2023-04-09T18:09:40.788Z,76.98
2023-04-09T18:12:10.205Z,76.90
2023-04-09T18:14:39.461Z,77.09
2023-04-09T18:17:07.969Z,77.07
2023-04-09T18:19:36.902Z,77.02
2023-04-09T18:22:06.564Z,77.12
2023-04-09T18:24:35.885Z,77.09
2023-04-09T18:27:04.554Z,77.16
2023-04-09T18:29:33.921Z,77.16
2023-04-09T18:32:02.620Z,77.13
2023-04-09T18:34:31.371Z,77.05
2023-04-09T18:37:00.064Z,77.12
2023-04-09T18:39:31.182Z,77.34
2023-04-09T18:42:00.389Z,77.22
2023-04-09T18:44:29.297Z,77.11
2023-04-09T18:46:59.672Z,77.17
2023-04-09T18:49:29.039Z,77.14
2023-04-09T18:51:57.913Z,77.10
2023-04-09T18:54:27.097Z,77.24
2023-04-09T18:56:57.841Z,77.31
2023-04-09T18:59:26.655Z,77.50
2023-04-09T19:01:56.219Z,77.52
2023-04-09T19:04:28.741Z,77.46
2023-04-09T19:06:58.029Z,77.47
2023-04-09T19:09:26.454Z,77.52
2023-04-09T19:11:55.520Z,77.45
2023-04-09T19:14:27.710Z,77.39
2023-04-09T19:16:57.701Z,77.37
2023-04-09T19:19:26.801Z,77.36
2023-04-09T19:21:55.615Z,77.47
2023-04-09T19:24:25.681Z,77.41
2023-04-09T19:26:55.324Z,77.68
2023-04-09T19:29:24.422Z,77.66
2023-04-09T19:31:54.457Z,77.66
2023-04-09T19:34:23.602Z,77.71
2023-04-09T19:36:52.343Z,77.59
2023-04-09T19:39:21.434Z,77.65
2023-04-09T19:41:50.647Z,77.66
2023-04-09T19:44:19.422Z,77.60
2023-04-09T19:46:48.742Z,77.59
2023-04-09T19:49:17.608Z,77.62
2023-04-09T19:51:46.062Z,77.74
2023-04-09T19:54:17.199Z,77.69
2023-04-09T19:56:46.245Z,77.72
2023-04-09T19:59:15.038Z,77.71
2023-04-09T20:01:44.305Z,77.83
2023-04-09T20:04:13.438Z,77.69
2023-04-09T20:06:43.547Z,77.73
2023-04-09T20:09:13.014Z,77.85
2023-04-09T20:11:42.459Z,77.60
2023-04-09T20:14:12.408Z,77.66
2023-04-09T20:16:41.257Z,77.90
2023-04-09T20:19:09.932Z,78.03
2023-04-09T20:21:38.721Z,78.10
2023-04-09T20:24:07.936Z,77.94
2023-04-09T20:26:36.845Z,78.06
2023-04-09T20:29:05.670Z,77.92
2023-04-09T20:31:35.763Z,77.92
2023-04-09T20:34:05.007Z,77.88
2023-04-09T20:36:34.835Z,78.06
2023-04-09T20:39:05.156Z,78.09
2023-04-09T20:41:34.029Z,78.26
2023-04-09T20:44:02.725Z,78.13
2023-04-09T20:46:31.921Z,78.03
2023-04-09T20:49:01.868Z,78.06
2023-04-09T20:51:33.462Z,78.10
2023-04-09T20:54:02.815Z,78.18
2023-04-09T20:56:32.375Z,78.13
2023-04-09T20:59:02.110Z,78.17
2023-04-09T21:01:32.706Z,78.24
2023-04-09T21:04:01.215Z,78.30
2023-04-09T21:06:29.708Z,78.62
2023-04-09T21:08:59.876Z,78.60
2023-04-09T21:11:29.291Z,78.44
2023-04-09T21:13:58.354Z,78.64
2023-04-09T21:16:30.408Z,78.61
2023-04-09T21:18:59.387Z,78.71
2023-04-09T21:21:28.632Z,78.41
2023-04-09T21:23:57.727Z,78.36
2023-04-09T21:26:26.629Z,78.39
2023-04-09T21:28:55.514Z,78.48
2023-04-09T21:31:24.739Z,78.69
2023-04-09T21:33:53.685Z,78.62
2023-04-09T21:36:22.300Z,78.52
2023-04-09T21:38:51.440Z,78.65
2023-04-09T21:41:20.184Z,78.52
2023-04-09T21:43:49.288Z,78.34
2023-04-09T21:46:18.462Z,78.23
2023-04-09T21:48:47.110Z,78.58
2023-04-09T21:51:15.943Z,78.44
2023-04-09T21:53:45.108Z,78.64
2023-04-09T21:56:13.602Z,78.65
2023-04-09T21:58:42.438Z,78.59
2023-04-09T22:01:22.416Z,78.71
2023-04-09T22:04:00.594Z,78.61
2023-04-09T22:06:30.264Z,78.65
2023-04-09T22:08:58.904Z,78.61
2023-04-09T22:11:28.564Z,78.75
2023-04-09T22:13:58.654Z,78.58
2023-04-09T22:16:27.610Z,78.68
2023-04-09T22:18:57.037Z,78.81
2023-04-09T22:21:27.309Z,78.77
2023-04-09T22:23:56.217Z,78.85
2023-04-09T22:26:24.855Z,78.64
2023-04-09T22:28:54.312Z,78.64
2023-04-09T22:31:23.262Z,78.82
2023-04-09T22:33:51.915Z,78.83
2023-04-09T22:36:22.160Z,78.98
2023-04-09T22:38:52.137Z,78.99
2023-04-09T22:41:21.560Z,79.00
2023-04-09T22:43:51.095Z,78.77
2023-04-09T22:46:20.157Z,78.92
2023-04-09T22:48:49.956Z,78.88
2023-04-09T22:51:18.995Z,78.80
2023-04-09T22:53:47.770Z,78.77
2023-04-09T22:56:16.311Z,78.76
2023-04-09T22:58:44.931Z,78.87
2023-04-09T23:01:13.880Z,78.99
2023-04-09T23:03:42.380Z,79.10
2023-04-09T23:06:11.404Z,78.96
2023-04-09T23:08:40.853Z,78.92
2023-04-09T23:11:11.001Z,78.94
2023-04-09T23:13:40.270Z,78.95
2023-04-09T23:16:09.960Z,79.02
2023-04-09T23:18:39.107Z,79.02
2023-04-09T23:21:09.718Z,79.00
2023-04-09T23:23:39.278Z,79.03
2023-04-09T23:26:08.160Z,78.90
2023-04-09T23:28:37.905Z,78.77
2023-04-09T23:31:06.522Z,78.84
2023-04-09T23:33:35.267Z,79.00
2023-04-09T23:36:05.049Z,78.89
2023-04-09T23:38:33.608Z,78.90
2023-04-09T23:41:02.585Z,78.94
2023-04-09T23:43:31.817Z,78.89
2023-04-09T23:46:00.327Z,78.97
2023-04-09T23:48:29.036Z,78.97
2023-04-09T23:50:58.024Z,79.09
2023-04-09T23:53:26.704Z,78.98
2023-04-09T23:55:55.561Z,78.98
2023-04-09T23:58:24.619Z,79.04
